Situs API Video Gratis Terbaik

AVDBAPI.COM

Cari katalog, periksa data, dan salin URL API bersih dari satu dasbor cepat.

Telegram Gabung komunitas Telegram untuk update!
Today
0
Pembaruan Hari Ini
Censored
313977
Video Disensor
Total
474136
Total Video

Daftar Video

Data terbaru diurutkan berdasarkan waktu pembaruan.

ID Nama CODE Kategori Diperbarui API
262607 H4610-KI221006 Kanae Maezaki Umur 27 Tahun H4610-KI221006 Tanpa sensor 2025-08-28 21:26:10 API
262606 MD0122 Cinta Butuh Keberanian / Film Dewasa Pertama Madou 2021 MD0122 AV China 2025-08-28 21:26:00 API
262605 MD0311 Janji Tersembunyi di Balik Gaun Pengantin/Kontol Mantan yang Tak Terlupakan MD0311 AV China 2025-08-28 21:25:50 API
262604 121621-01 Amatir kaki jenjang cantik goyang pinggul dengan liar sambil menjerit nikmat 121621-01 Tanpa sensor 2025-08-28 21:25:40 API
262603 JPGC0024 Seks Perselingkuhan Gila Istri Langsing yang Gatel JPGC0024 Tanpa sensor 2025-08-28 21:25:30 API
262602 MD0123 Debut Series / Mahasiswi Supermodel dengan Kaki Cantik Menggoda MD0123 AV China 2025-08-28 21:25:20 API
262601 FC2-PPV-4508077 Puting Lewat yang Mengeras! Surga Creampie dari RAW dan Gadis FC2-PPV-4508077 Tanpa sensor 2025-08-28 21:25:10 API
262600 040517-004 The Paipan II ~ Roriman Licin yang Menarik Benang Kenikmatan ~ 040517-004 Tanpa sensor 2025-08-28 21:25:00 API
262599 HEYZO-2829 Haruka Sanada [Haruka Sanada] Selingkuhan seksiku dengan tubuh yang super sensitif HEYZO-2829 Tanpa sensor 2025-08-28 21:24:50 API
262598 H0930-KI220806 Babe 29 Tahun Emi Shirakawa H0930-KI220806 Tanpa sensor 2025-08-28 21:24:40 API
262597 C0930-HITOZUMA1375 Nao Tsubono 27 Tahun C0930-HITOZUMA1375 Tanpa sensor 2025-08-28 21:24:30 API
262596 081822-001 180 Menit Tusukan Tanpa Henti Bak Gelombang Liar ~Gila Karena Orgasme yang Tak Terbendung!~ Part 2 Akemi Kihara 081822-001 Tanpa sensor 2025-08-28 21:24:20 API
262595 QT004 Guru Saya Yang Kecanduan Seks Membuat Janji Temu Dengan Guru Lain Berdada Besar QT004 AV China 2025-08-28 21:24:10 API
262594 050521_001 Lubang Ibu dan Main Enak 050521_001 Tanpa sensor 2025-08-28 21:24:00 API
262593 MD0118 Kenapa Buru-buru Banget? / Teater Seragam Seksi Variasi MD0118 AV China 2025-08-28 21:23:50 API
262592 H-221006 Kanae Maezaki H-221006 Tanpa sensor 2025-08-28 21:23:40 API
262591 121821-01 Payudara Cup F: Si Santa akan melayani kontolmu 121821-01 Tanpa sensor 2025-08-28 21:23:30 API
262590 PP051 Fallen Angel Gonzo No.051 Kaori Sequel PP051 Tanpa sensor 2025-08-28 21:23:20 API
262589 111821-560 Latihan Seksi Pakai Baju Gym Ketat dan Bloomers Sempit 111821-560 Tanpa sensor 2025-08-28 21:23:10 API
262588 MD0119 Debut Aktris Baru / Gadis Imut Alami dengan Pesona Dewasa yang Menggoda MD0119 AV China 2025-08-28 21:23:00 API
262587 H0930-TK0060 Wanita Seksi 26 Tahun Yumiko Iwao H0930-TK0060 Tanpa sensor 2025-08-28 21:22:50 API
262586 FC2-PPV-4508265 Coba liat cewek rahasia yang satu ini! FC2-PPV-4508265 Tanpa sensor 2025-08-28 21:22:40 API
262585 CUS-2103 Sepupu Saya Menjadi Mainan Seks Pribadi Saya CUS-2103 AV China 2025-08-28 21:22:30 API
262584 040517-003 Terus Mengerang Sampai Klimaks 040517-003 Tanpa sensor 2025-08-28 21:22:20 API
262583 C0930-KI220312 Narumi Nakane Gadis Cantik Usia 20 Tahun C0930-KI220312 Tanpa sensor 2025-08-28 21:22:10 API
262582 HEYZO-2830 Noeru Misawa [Noeru Misawa] Hasrat Liar Ingin Menaklukkan Saffle Vol.2 HEYZO-2830 Tanpa sensor 2025-08-28 21:22:00 API
262581 050621_001 Shiramoriri, bidadari pemandian air panas yang seksi 050621_001 Tanpa sensor 2025-08-28 21:21:50 API
262580 MD0120-3 Werewolf Menghunjam Sang Dewi Saat Ia Kembali ke Cahaya MD0120-3 AV China 2025-08-28 21:21:40 API
262579 CUS-2106 Si Cantik Sekolah Tsundere Merintih di Bawah Kontolku CUS-2106 AV China 2025-08-28 21:21:30 API
262578 H4610-KI221009 Rinako Fujimoto Wanita Cantik Usia 28 Tahun H4610-KI221009 Tanpa sensor 2025-08-28 21:21:20 API
262577 112021-561 Liburan Onsen Rahasia 112021-561 Tanpa sensor 2025-08-28 21:21:10 API
262576 H0930-KI220807 Wanita Matang 45 Tahun Kikuko Fujimoto H0930-KI220807 Tanpa sensor 2025-08-28 21:21:00 API
262575 081922-001 Debut Vol.77 ~Boleh Kan Mencintai Seks? ~ Rin Hinami 081922-001 Tanpa sensor 2025-08-28 21:20:50 API
262574 SR052 Rekaman Rekrutmen Lulusan Baru No.052 Reina [Rekaman Pribadi] SR052 Tanpa sensor 2025-08-28 21:20:40 API
262573 121921-01 Koleksi Memek Paling Berharga - Silakan Lihat Memek Aki - 121921-01 Tanpa sensor 2025-08-28 21:20:30 API
262572 FC2-PPV-4508673 Istri yang Kehilangan Nama dan Usia dalam Permainan Ranjang yang Liar FC2-PPV-4508673 Tanpa sensor 2025-08-28 21:20:20 API
262571 MD0120-2 Werewolf Menghunjam Sang Dewi Kemarahan MD0120-2 AV China 2025-08-28 21:20:10 API
262570 CUS-2105 Gadis Tetangga dan Rahasia Kecilku yang Nakal CUS-2105 AV China 2025-08-28 21:20:00 API
262569 041217-005 Lingerie Seksi dan Seks Basah yang Sangat Menggairahkan 041217-005 Tanpa sensor 2025-08-28 21:19:50 API
262568 MD0116 Pertempuran Panas Berahi di Pemandian Air Panas Musim Dingin MD0116 AV China 2025-08-28 21:19:40 API
262567 050721_001 Wanita Hospitality yang Jago Ngentot 050721_001 Tanpa sensor 2025-08-28 21:19:30 API
262566 CUS-2104 Pengalaman Threesome Gila dari Adik Laki CUS-2104 AV China 2025-08-28 21:19:20 API
262565 C-220313 Wanita Matang 56 Tahun Kanae Abe yang Menggairahkan C-220313 Tanpa sensor 2025-08-28 21:19:10 API
262563 H0930-KI220809 Takami Kishihata Usia 35 Tahun H0930-KI220809 Tanpa sensor 2025-08-28 21:18:50 API
262562 122121-01 Tiba-tiba diculik di kota, dibawa ke hotel, dan langsung dicokot sampai keluar sperma di dalam vagina 122121-01 Tanpa sensor 2025-08-28 21:18:40 API
262561 112321-562 Wanita Matang Kembali Untuk Dientot Lewat Anal 112321-562 Tanpa sensor 2025-08-28 21:18:30 API
262560 JUP0035 Wanita Mesum yang Masih Merasakan Sensasi Hook Hidung, Deep Throat, Gantung Testis, Lilin Panas, dan Siksaan Listrik JUP0035 Tanpa sensor 2025-08-28 21:18:20 API
262559 CUS-2107 Elephant Media: Seks transparan pakai stocking hitam: Malaikat jatuh berubah jadi succubus penggoda CUS-2107 AV China 2025-08-28 21:18:10 API
262558 FC2-PPV-4508672 Begini sudah bikin Yun-Pon puas? Spesial untuk Otoha FC2-PPV-4508672 Tanpa sensor 2025-08-28 21:18:00 API
262557 HEYZO-2832 Sumire Mika jilat dan emut sampai puas! HEYZO-2832 Tanpa sensor 2025-08-28 21:17:50 API